createdAt,value
2019-06-20T00:03:17.506Z,31.27
2019-06-20T00:05:47.215Z,39.50
2019-06-20T00:08:17.014Z,31.93
2019-06-20T00:10:46.770Z,41.03
2019-06-20T00:13:16.515Z,37.70
2019-06-20T00:15:46.385Z,35.20
2019-06-20T00:18:16.125Z,47.57
2019-06-20T00:20:45.877Z,39.77
2019-06-20T00:23:15.738Z,44.93
2019-06-20T00:25:45.462Z,49.33
2019-06-20T00:28:15.217Z,46.33
2019-06-20T00:30:44.969Z,56.47
2019-06-20T00:33:14.972Z,43.80
2019-06-20T00:35:44.737Z,48.17
2019-06-20T00:38:14.576Z,49.93
2019-06-20T00:40:44.317Z,55.87
2019-06-20T00:43:17.988Z,63.10
2019-06-20T00:45:45.657Z,53.33
2019-06-20T00:48:15.490Z,53.10
2019-06-20T00:50:45.210Z,56.43
2019-06-20T00:53:15.036Z,59.87
2019-06-20T00:55:44.824Z,52.30
2019-06-20T00:58:14.708Z,50.50
2019-06-20T01:00:44.429Z,53.27
2019-06-20T01:03:14.224Z,53.27
2019-06-20T01:05:43.972Z,54.10
2019-06-20T01:08:13.725Z,55.80
2019-06-20T01:10:43.866Z,49.70
2019-06-20T01:13:13.650Z,51.97
2019-06-20T01:15:43.402Z,53.00
2019-06-20T01:18:13.132Z,60.93
2019-06-20T01:20:42.861Z,56.00
2019-06-20T01:23:12.728Z,47.10
2019-06-20T01:25:44.048Z,65.73
2019-06-20T01:34:30.074Z,54.27
2019-06-20T01:36:59.864Z,68.50
2019-06-20T01:39:29.737Z,53.83
2019-06-20T01:41:59.523Z,47.00
2019-06-20T01:44:29.287Z,52.03
2019-06-20T01:46:59.174Z,56.20
2019-06-20T01:49:29.036Z,54.47
2019-06-20T01:51:58.862Z,58.33
2019-06-20T01:54:28.977Z,44.77
2019-06-20T01:56:58.748Z,46.70
2019-06-20T01:59:28.506Z,56.57
2019-06-20T02:01:58.397Z,60.13
2019-06-20T02:04:28.139Z,45.03
2019-06-20T02:06:58.016Z,48.50
2019-06-20T02:09:27.763Z,49.93
2019-06-20T02:11:57.594Z,49.87
2019-06-20T02:14:27.353Z,54.17
2019-06-20T02:16:57.195Z,48.30
2019-06-20T02:19:26.981Z,51.50
2019-06-20T02:21:56.721Z,41.23
2019-06-20T02:24:26.477Z,43.80
2019-06-20T02:26:56.267Z,49.77
2019-06-20T02:29:26.022Z,52.67
2019-06-20T02:31:55.775Z,50.10
2019-06-20T02:34:25.483Z,40.47
2019-06-20T02:36:55.461Z,36.60
2019-06-20T02:39:25.320Z,54.63
2019-06-20T02:41:55.103Z,50.10
2019-06-20T02:44:30.387Z,34.70
2019-06-20T02:46:56.327Z,43.17
2019-06-20T02:49:26.005Z,36.93
2019-06-20T02:51:56.249Z,29.87
2019-06-20T02:54:26.082Z,45.80
2019-06-20T02:56:55.833Z,44.37
2019-06-20T02:59:25.593Z,43.40
2019-06-20T03:01:55.487Z,39.03
2019-06-20T03:04:25.332Z,44.53
2019-06-20T03:06:55.100Z,41.03
2019-06-20T03:09:24.811Z,42.67
2019-06-20T03:11:54.809Z,51.40
2019-06-20T03:14:24.565Z,37.60
2019-06-20T03:16:54.266Z,39.00
2019-06-20T03:19:23.995Z,49.17
2019-06-20T03:21:53.749Z,44.47
2019-06-20T03:24:23.527Z,43.83
2019-06-20T03:26:53.365Z,48.00
2019-06-20T03:29:23.177Z,48.83
2019-06-20T03:31:52.890Z,53.00
2019-06-20T03:34:34.871Z,55.77
2019-06-20T03:37:04.573Z,56.90
2019-06-20T03:39:34.330Z,60.07
2019-06-20T03:42:04.058Z,60.57
2019-06-20T03:47:56.987Z,48.37
2019-06-20T03:50:26.717Z,60.23
2019-06-20T03:53:02.289Z,56.53
2019-06-20T03:55:33.600Z,43.40
2019-06-20T03:58:03.809Z,58.90
2019-06-20T04:00:35.937Z,56.03
2019-06-20T04:03:07.407Z,62.80
2019-06-20T04:05:37.665Z,59.50
2019-06-20T04:08:07.378Z,59.27
2019-06-20T04:10:37.111Z,62.83
2019-06-20T04:13:06.867Z,63.97
2019-06-20T04:15:36.967Z,58.97
2019-06-20T04:18:06.690Z,70.13
2019-06-20T04:20:36.460Z,54.27
2019-06-20T04:23:06.190Z,64.27
2019-06-20T04:25:36.045Z,70.00
2019-06-20T04:28:05.813Z,65.83
2019-06-20T04:30:35.514Z,72.20
2019-06-20T04:33:05.253Z,71.67
2019-06-20T04:35:35.003Z,72.67
2019-06-20T04:38:04.809Z,69.87
2019-06-20T04:40:34.782Z,62.73
2019-06-20T04:43:04.596Z,84.57
2019-06-20T04:45:59.204Z,68.40
2019-06-20T04:48:28.983Z,68.33
2019-06-20T04:50:59.228Z,60.83
2019-06-20T04:53:29.153Z,85.97
2019-06-20T04:55:58.975Z,84.07
2019-06-20T04:58:28.832Z,64.93
2019-06-20T05:00:58.598Z,87.23
2019-06-20T05:03:28.414Z,80.27
2019-06-20T05:05:58.222Z,67.17
2019-06-20T05:08:27.967Z,64.43
2019-06-20T05:10:57.656Z,83.87
2019-06-20T05:13:27.366Z,72.47
2019-06-20T05:15:57.135Z,66.37
2019-06-20T05:18:26.891Z,76.37
2019-06-20T05:20:56.750Z,74.43
2019-06-20T05:23:26.595Z,74.57
2019-06-20T05:25:56.423Z,67.23
2019-06-20T05:28:26.294Z,63.60
2019-06-20T05:30:56.045Z,69.67
2019-06-20T05:33:25.786Z,67.53
2019-06-20T05:35:55.584Z,68.30
2019-06-20T05:38:25.262Z,65.83
2019-06-20T05:40:55.132Z,67.17
2019-06-20T05:43:24.921Z,67.83
2019-06-20T05:49:49.719Z,77.30
2019-06-20T05:52:19.549Z,65.03
2019-06-20T05:54:49.398Z,61.43
2019-06-20T05:57:19.216Z,58.67
2019-06-20T05:59:48.969Z,68.10
2019-06-20T06:02:18.846Z,69.03
2019-06-20T06:04:49.041Z,65.50
2019-06-20T06:07:18.964Z,63.83
2019-06-20T06:09:48.880Z,58.03
2019-06-20T06:12:18.624Z,61.33
2019-06-20T06:14:49.121Z,59.23
2019-06-20T06:17:19.254Z,63.07
2019-06-20T06:19:49.334Z,61.43
2019-06-20T06:22:19.085Z,56.03
2019-06-20T06:24:48.851Z,57.83
2019-06-20T06:27:18.641Z,66.90
2019-06-20T06:29:48.337Z,50.53
2019-06-20T06:32:20.183Z,53.53
2019-06-20T06:34:49.600Z,56.47
2019-06-20T06:37:19.258Z,50.90
2019-06-20T06:39:49.092Z,48.87
2019-06-20T06:42:20.019Z,47.97
2019-06-20T06:44:49.741Z,54.27
2019-06-20T06:47:19.582Z,45.43
2019-06-20T06:49:49.463Z,54.10
2019-06-20T06:52:19.604Z,45.20
2019-06-20T06:54:49.456Z,54.97
2019-06-20T06:57:19.291Z,55.63
2019-06-20T06:59:49.145Z,61.03
2019-06-20T07:02:19.401Z,66.00
2019-06-20T07:04:49.558Z,61.03
2019-06-20T07:07:19.333Z,47.00
2019-06-20T07:09:49.150Z,60.73
2019-06-20T07:12:19.046Z,69.40
2019-06-20T07:14:49.147Z,69.53
2019-06-20T07:17:19.087Z,69.40
2019-06-20T07:19:49.931Z,63.37
2019-06-20T07:22:19.628Z,65.40
2019-06-20T07:24:49.519Z,67.93
2019-06-20T07:27:19.700Z,58.03
2019-06-20T07:29:50.391Z,52.90
2019-06-20T07:32:20.219Z,57.60
2019-06-20T07:34:50.329Z,63.30
2019-06-20T07:37:20.247Z,55.30
2019-06-20T07:39:49.947Z,60.60
2019-06-20T07:42:19.675Z,60.17
2019-06-20T07:44:49.644Z,57.07
2019-06-20T07:47:19.404Z,44.43
2019-06-20T07:49:49.255Z,55.37
2019-06-20T07:52:18.951Z,58.23
2019-06-20T07:55:01.264Z,56.43
2019-06-20T07:57:31.040Z,53.73
2019-06-20T08:00:00.811Z,60.50
2019-06-20T08:02:40.292Z,52.63
2019-06-20T08:10:00.698Z,46.67
2019-06-20T08:13:37.611Z,51.63
2019-06-20T08:19:01.598Z,44.57
2019-06-20T08:21:31.747Z,38.63
2019-06-20T08:24:01.543Z,44.13
2019-06-20T08:26:31.388Z,42.80
2019-06-20T08:29:16.135Z,38.17
2019-06-20T08:31:32.458Z,35.20
2019-06-20T08:34:02.356Z,36.73
2019-06-20T08:36:32.192Z,35.57
2019-06-20T08:39:02.620Z,36.40
2019-06-20T08:41:32.835Z,34.53
2019-06-20T08:44:03.859Z,35.37
2019-06-20T08:46:33.985Z,32.93
2019-06-20T08:49:03.927Z,31.33
2019-06-20T08:51:33.657Z,30.70
2019-06-20T08:54:03.541Z,30.53
2019-06-20T08:56:33.322Z,31.80
2019-06-20T08:59:04.854Z,30.80
2019-06-20T09:01:35.249Z,37.80
2019-06-20T09:04:05.209Z,30.47
2019-06-20T09:06:35.057Z,30.50
2019-06-20T09:09:07.098Z,30.47
2019-06-20T09:11:36.886Z,29.33
2019-06-20T09:14:07.128Z,31.37
2019-06-20T09:16:36.840Z,27.13
2019-06-20T09:19:06.660Z,28.27
2019-06-20T09:21:36.703Z,26.53
2019-06-20T09:24:07.002Z,26.67
2019-06-20T09:26:36.865Z,27.83
2019-06-20T09:29:06.619Z,26.87
2019-06-20T09:31:36.670Z,27.33
2019-06-20T09:34:06.597Z,31.77
2019-06-20T09:36:36.453Z,31.10
2019-06-20T09:39:07.966Z,26.73
2019-06-20T09:41:37.741Z,28.53
2019-06-20T09:44:07.799Z,26.37
2019-06-20T09:46:37.673Z,30.33
2019-06-20T09:49:08.073Z,26.60
2019-06-20T09:51:50.435Z,25.17
2019-06-20T09:54:20.357Z,19.43
2019-06-20T09:56:53.090Z,20.37
2019-06-20T09:59:27.646Z,20.10
2019-06-20T10:01:53.501Z,26.07
2019-06-20T10:04:24.518Z,25.27
2019-06-20T10:06:54.457Z,22.83
2019-06-20T10:09:24.692Z,18.33
2019-06-20T10:11:54.378Z,19.60
2019-06-20T10:14:24.579Z,21.63
2019-06-20T10:16:55.600Z,18.87
2019-06-20T10:19:26.095Z,18.60
2019-06-20T10:21:56.080Z,16.80
2019-06-20T10:24:25.981Z,19.53
2019-06-20T10:26:55.913Z,16.73
2019-06-20T10:29:26.604Z,16.83
2019-06-20T10:31:57.266Z,22.07
2019-06-20T10:34:27.174Z,19.60
2019-06-20T10:36:57.177Z,16.87
2019-06-20T10:39:27.130Z,15.17
2019-06-20T10:41:58.858Z,18.60
2019-06-20T10:44:28.676Z,16.93
2019-06-20T10:46:58.432Z,13.70
2019-06-20T10:49:30.131Z,15.17
2019-06-20T10:51:59.952Z,12.47
2019-06-20T10:54:31.533Z,13.33
2019-06-20T10:57:01.368Z,12.00
2019-06-20T10:59:31.269Z,12.20
2019-06-20T11:02:01.204Z,11.23
2019-06-20T11:04:31.104Z,10.00
2019-06-20T11:07:00.902Z,11.97
2019-06-20T11:09:30.763Z,12.67
2019-06-20T11:12:00.537Z,10.83
2019-06-20T11:14:30.538Z,11.80
2019-06-20T11:17:00.381Z,11.50
2019-06-20T11:19:30.572Z,11.37
2019-06-20T11:22:00.598Z,9.80
2019-06-20T11:24:30.468Z,7.47
2019-06-20T11:27:00.201Z,7.43
2019-06-20T11:29:30.104Z,8.63
2019-06-20T11:31:59.931Z,9.27
2019-06-20T11:34:29.588Z,8.50
2019-06-20T11:36:59.283Z,9.77
2019-06-20T11:39:29.040Z,7.70
2019-06-20T11:41:58.766Z,8.33
2019-06-20T11:44:28.534Z,11.43
2019-06-20T11:46:58.369Z,9.00
2019-06-20T11:49:28.234Z,7.33
2019-06-20T11:51:58.005Z,7.60
2019-06-20T11:54:27.801Z,9.63
2019-06-20T11:56:57.556Z,8.67
2019-06-20T11:59:27.427Z,10.13
2019-06-20T12:01:57.247Z,10.67
2019-06-20T12:04:27.138Z,8.63
2019-06-20T12:06:57.109Z,8.90
2019-06-20T12:09:26.894Z,12.77
2019-06-20T12:11:56.721Z,12.10
2019-06-20T12:14:26.614Z,10.20
2019-06-20T12:16:56.929Z,10.37
2019-06-20T12:19:26.694Z,11.27
2019-06-20T12:21:56.435Z,10.23
2019-06-20T12:24:26.199Z,10.73
2019-06-20T12:26:56.056Z,9.30
2019-06-20T12:29:25.837Z,10.93
2019-06-20T12:31:56.319Z,11.43
2019-06-20T12:34:26.296Z,8.70
2019-06-20T12:36:56.025Z,12.53
2019-06-20T12:39:25.793Z,11.90
2019-06-20T12:41:55.583Z,11.20
2019-06-20T12:44:25.239Z,11.43
2019-06-20T12:46:55.039Z,13.17
2019-06-20T12:49:24.863Z,9.67
2019-06-20T12:51:54.642Z,11.53
2019-06-20T12:54:24.331Z,11.57
2019-06-20T12:56:54.132Z,12.33
2019-06-20T12:59:23.847Z,10.40
2019-06-20T13:01:53.580Z,9.63
2019-06-20T13:04:23.272Z,9.47
2019-06-20T13:06:53.003Z,9.30
2019-06-20T13:09:22.831Z,8.57
2019-06-20T13:11:52.837Z,10.90
2019-06-20T13:14:22.599Z,11.90
2019-06-20T13:16:52.480Z,11.00
2019-06-20T13:19:25.679Z,9.47
2019-06-20T13:22:02.591Z,10.67
2019-06-20T13:24:34.128Z,8.20
2019-06-20T13:27:03.799Z,9.97
2019-06-20T13:29:33.569Z,16.97
2019-06-20T13:32:04.612Z,10.87
2019-06-20T13:34:34.461Z,11.87
2019-06-20T13:37:07.635Z,8.57
2019-06-20T13:39:38.508Z,6.00
2019-06-20T13:42:08.777Z,5.37
2019-06-20T13:44:39.564Z,4.67
2019-06-20T13:47:15.614Z,6.20
2019-06-20T13:49:45.851Z,5.17
2019-06-20T13:52:16.612Z,6.50
2019-06-20T13:54:47.970Z,5.50
2019-06-20T13:57:18.832Z,6.33
2019-06-20T13:59:56.332Z,6.90
2019-06-20T14:02:26.164Z,6.83
2019-06-20T14:05:00.539Z,5.70
2019-06-20T14:07:30.452Z,5.60
2019-06-20T14:10:33.214Z,4.90
2019-06-20T14:13:15.533Z,5.93
2019-06-20T14:15:34.815Z,6.10
2019-06-20T14:18:05.002Z,5.60
2019-06-20T14:20:34.770Z,7.23
2019-06-20T14:23:06.387Z,5.90
2019-06-20T14:25:36.265Z,7.30
2019-06-20T14:28:06.114Z,5.40
2019-06-20T14:36:37.663Z,5.33
2019-06-20T14:39:08.054Z,8.03
2019-06-20T14:41:37.877Z,5.60
2019-06-20T14:44:07.690Z,6.63
2019-06-20T14:46:37.530Z,8.40
2019-06-20T14:49:07.600Z,7.03
2019-06-20T14:51:37.372Z,6.20
2019-06-20T14:54:07.116Z,5.43
2019-06-20T14:56:37.029Z,6.10
2019-06-20T14:59:06.964Z,5.30
2019-06-20T15:01:36.879Z,5.57
2019-06-20T15:04:07.043Z,5.13
2019-06-20T15:06:37.855Z,4.90
2019-06-20T15:09:08.175Z,8.90
2019-06-20T15:11:38.089Z,5.70
2019-06-20T15:14:08.038Z,4.50
2019-06-20T15:16:37.747Z,4.87
2019-06-20T15:19:07.635Z,5.07
2019-06-20T15:21:37.320Z,4.97
2019-06-20T15:24:07.101Z,4.80
2019-06-20T15:26:37.063Z,4.87
2019-06-20T15:29:06.796Z,6.10
2019-06-20T15:31:36.498Z,4.87
2019-06-20T15:34:06.350Z,5.03
2019-06-20T15:36:36.074Z,5.40
2019-06-20T15:39:07.333Z,6.87
2019-06-20T15:41:37.131Z,5.50
2019-06-20T15:44:06.937Z,5.23
2019-06-20T15:46:36.702Z,5.40
2019-06-20T15:49:15.642Z,6.00
2019-06-20T15:51:37.910Z,6.10
2019-06-20T15:54:07.736Z,5.33
2019-06-20T15:56:37.541Z,4.47
2019-06-20T15:59:07.290Z,4.00
2019-06-20T16:01:37.067Z,4.00
2019-06-20T16:04:06.874Z,4.97
2019-06-20T16:06:36.628Z,4.50
2019-06-20T16:09:09.188Z,4.80
2019-06-20T16:11:39.004Z,6.50
2019-06-20T16:14:09.534Z,5.27
2019-06-20T16:16:39.235Z,5.43
2019-06-20T16:19:09.019Z,4.53
2019-06-20T16:21:38.830Z,7.93
2019-06-20T16:24:08.751Z,5.60
2019-06-20T16:26:38.942Z,5.23
2019-06-20T16:29:08.891Z,5.23
2019-06-20T16:31:38.620Z,4.53
2019-06-20T16:34:08.457Z,5.33
2019-06-20T16:36:38.338Z,5.43
2019-06-20T16:39:08.703Z,5.00
2019-06-20T16:41:38.431Z,5.47
2019-06-20T16:44:08.166Z,8.23
2019-06-20T16:46:37.998Z,6.03
2019-06-20T16:49:07.797Z,5.37
2019-06-20T16:51:37.543Z,7.53
2019-06-20T16:54:07.300Z,4.77
2019-06-20T16:56:37.132Z,6.07
2019-06-20T16:59:07.088Z,5.20
2019-06-20T17:01:36.790Z,5.67
2019-06-20T17:04:06.480Z,6.17
2019-06-20T17:06:36.270Z,5.90
2019-06-20T17:09:07.986Z,4.87
2019-06-20T17:11:40.589Z,5.47
2019-06-20T17:14:10.323Z,5.20
2019-06-20T17:16:40.057Z,4.97
2019-06-20T17:19:09.953Z,7.13
2019-06-20T17:21:39.634Z,6.97
2019-06-20T17:24:09.341Z,6.43
2019-06-20T17:26:39.156Z,7.13
2019-06-20T17:29:09.029Z,5.30
2019-06-20T17:31:39.055Z,5.63
2019-06-20T17:34:08.987Z,6.77
2019-06-20T17:36:38.739Z,11.43
2019-06-20T17:39:09.266Z,8.43
2019-06-20T17:41:54.194Z,7.17
2019-06-20T17:44:10.789Z,8.00
2019-06-20T17:46:40.689Z,6.27
2019-06-20T17:49:16.583Z,6.40
2019-06-20T17:51:46.302Z,9.17
2019-06-20T17:54:20.171Z,10.13
2019-06-20T17:56:50.254Z,6.93
2019-06-20T17:59:22.843Z,5.87
2019-06-20T18:08:15.017Z,12.37
2019-06-20T18:10:42.055Z,7.20
2019-06-20T18:13:11.928Z,5.60
2019-06-20T18:15:41.881Z,6.53
2019-06-20T18:18:11.830Z,7.67
2019-06-20T18:20:41.846Z,10.20
2019-06-20T18:23:11.818Z,7.63
2019-06-20T18:25:41.573Z,6.43
2019-06-20T18:28:11.471Z,6.03
2019-06-20T18:30:50.512Z,7.70
2019-06-20T18:33:20.422Z,7.37
2019-06-20T18:35:50.297Z,9.67
2019-06-20T18:38:20.202Z,16.17
2019-06-20T18:40:50.007Z,8.87
2019-06-20T18:43:19.929Z,9.40
2019-06-20T18:45:49.679Z,9.03
2019-06-20T18:48:19.536Z,10.00
2019-06-20T18:50:49.262Z,9.97
2019-06-20T18:53:19.051Z,7.27
2019-06-20T18:55:48.883Z,7.63
2019-06-20T18:58:18.761Z,8.27
2019-06-20T19:00:48.561Z,6.53
2019-06-20T19:03:21.245Z,7.67
2019-06-20T19:05:49.789Z,9.23
2019-06-20T19:08:19.627Z,11.57
2019-06-20T19:10:49.573Z,12.80
2019-06-20T19:13:19.428Z,11.47
2019-06-20T19:15:49.837Z,14.77
2019-06-20T19:18:22.882Z,16.23
2019-06-20T19:20:51.249Z,14.57
2019-06-20T19:23:21.707Z,15.27
2019-06-20T19:25:51.523Z,12.67
2019-06-20T19:28:21.243Z,11.53
2019-06-20T19:30:52.304Z,14.73
2019-06-20T19:33:22.127Z,17.07
2019-06-20T19:35:51.987Z,14.27
2019-06-20T19:38:22.114Z,14.57
2019-06-20T19:40:51.865Z,11.93
2019-06-20T19:43:22.070Z,12.03
2019-06-20T19:45:51.860Z,15.43
2019-06-20T19:48:21.820Z,10.80
2019-06-20T19:50:51.596Z,11.80
2019-06-20T19:53:21.459Z,13.77
2019-06-20T19:55:51.217Z,14.50
2019-06-20T19:58:21.139Z,12.57
2019-06-20T20:00:51.379Z,12.23
2019-06-20T20:03:21.293Z,13.23
2019-06-20T20:05:51.102Z,13.37
2019-06-20T20:08:21.263Z,12.83
2019-06-20T20:10:51.594Z,11.60
2019-06-20T20:13:21.448Z,16.23
2019-06-20T20:15:51.429Z,8.70
2019-06-20T20:18:21.314Z,12.03
2019-06-20T20:20:51.184Z,10.63
2019-06-20T20:23:21.027Z,14.40
2019-06-20T20:25:52.568Z,12.90
2019-06-20T20:28:22.422Z,14.57
2019-06-20T20:30:53.699Z,13.97
2019-06-20T20:33:23.858Z,20.63
2019-06-20T20:36:01.954Z,17.17
2019-06-20T20:38:31.265Z,15.73
2019-06-20T20:41:01.099Z,15.00
2019-06-20T20:43:30.893Z,12.57
2019-06-20T20:46:00.673Z,14.30
2019-06-20T20:48:30.528Z,13.47
2019-06-20T20:51:00.429Z,17.33
2019-06-20T20:53:30.249Z,14.53
2019-06-20T20:56:02.363Z,18.40
2019-06-20T20:58:31.688Z,14.23
2019-06-20T21:01:17.287Z,14.67
2019-06-20T21:03:47.154Z,16.13
2019-06-20T21:06:16.876Z,15.90
2019-06-20T21:08:46.994Z,17.57
2019-06-20T21:11:16.914Z,21.07
2019-06-20T21:13:46.738Z,13.80
2019-06-20T21:16:16.510Z,15.43
2019-06-20T21:18:46.384Z,15.30
2019-06-20T21:21:16.050Z,16.70
2019-06-20T21:23:45.866Z,14.87
2019-06-20T21:26:15.764Z,20.13
2019-06-20T21:28:45.611Z,15.77
2019-06-20T21:31:15.468Z,15.87
2019-06-20T21:33:46.646Z,18.83
2019-06-20T21:36:16.431Z,12.77
2019-06-20T21:38:46.142Z,17.03
2019-06-20T21:41:17.593Z,16.80
2019-06-20T21:43:47.287Z,16.80
2019-06-20T21:46:17.479Z,21.07
2019-06-20T21:48:47.273Z,14.77
2019-06-20T21:51:17.103Z,17.40
2019-06-20T21:53:47.084Z,15.97
2019-06-20T21:56:16.867Z,16.33
2019-06-20T21:58:46.641Z,18.60
2019-06-20T22:01:17.711Z,14.80
2019-06-20T22:03:47.381Z,16.23
2019-06-20T22:06:23.793Z,19.70
2019-06-20T22:08:48.700Z,16.37
2019-06-20T22:11:18.460Z,19.57
2019-06-20T22:13:48.186Z,18.90
2019-06-20T22:16:17.959Z,17.73
2019-06-20T22:18:47.708Z,17.57
2019-06-20T22:21:17.525Z,15.50
2019-06-20T22:23:47.220Z,16.80
2019-06-20T22:26:17.035Z,16.37
2019-06-20T22:28:46.851Z,15.27
2019-06-20T22:31:16.741Z,14.63
2019-06-20T22:33:46.549Z,17.07
2019-06-20T22:36:38.734Z,17.13
2019-06-20T22:38:55.198Z,16.73
2019-06-20T22:41:24.856Z,15.90
2019-06-20T22:43:54.713Z,17.43
2019-06-20T22:46:24.581Z,21.33
2019-06-20T22:48:55.343Z,18.67
2019-06-20T22:51:25.078Z,16.20
2019-06-20T22:53:54.921Z,14.93
2019-06-20T22:56:24.625Z,17.63
2019-06-20T22:58:54.465Z,13.10
2019-06-20T23:01:24.353Z,14.83
2019-06-20T23:03:54.189Z,17.17
2019-06-20T23:06:24.012Z,19.10
2019-06-20T23:08:53.766Z,15.57
2019-06-20T23:11:23.527Z,16.80
2019-06-20T23:13:53.413Z,17.17
2019-06-20T23:16:23.147Z,19.43
2019-06-20T23:18:53.097Z,15.00
2019-06-20T23:21:23.023Z,17.97
2019-06-20T23:23:52.913Z,17.93
2019-06-20T23:26:22.745Z,17.67
2019-06-20T23:29:11.573Z,16.57
2019-06-20T23:31:41.377Z,13.47
2019-06-20T23:34:11.154Z,16.90
2019-06-20T23:36:40.880Z,18.57
2019-06-20T23:39:10.591Z,17.63
2019-06-20T23:41:40.451Z,18.60
2019-06-20T23:44:10.297Z,19.67
2019-06-20T23:46:40.140Z,18.47
2019-06-20T23:49:10.196Z,15.47
2019-06-20T23:51:45.804Z,20.03
2019-06-20T23:54:15.729Z,16.43
2019-06-20T23:56:45.638Z,17.17
2019-06-20T23:59:15.597Z,19.73
